PWSweather.com
Personal Weather Stations
Station Observations
SHAHALMS1
Eftra, Falkenberg, HA

EftraFalkenberg, HA

Lat: 56.85, Lon: 12.65

Elevation: 140

Station Type:

http://hem.passagen.se/risarp101

Latest ConditionsUpdated 2:15:01 PM GMT+1 Thursday, Apr 18, 2019
Currently Today's Max Today's Min Today's Average
Temperature 61.7°F16.5°C 62.8°F17.1°C 37.8°F3.2°C 48.5°F9.2°C
Dew Point 33.0°F0.6°C 36.1°F2.3°C 24.1°F-4.4°C 29.6°F-1.3°C
Winds 4.6 mph W7.4 kmh W 9.2 mph -14.8 kmh - - 4.4 mph 7.1 kmh
Wind Gusts 10.4 mph16.7 kmh 17.9 mph28.8 kmh - -
Humidity 34% 63% 31% 50%
Pressure 30.60 in1036.2 mb 30.63 in1037.3 mb 30.51 in1033.2 mb -
Hour Temp Dew Point Humidity Winds Wind Gusts Pressure Precip Precip Rate Daily Precip Total
02:15 PM 61.7°F16.5°C 33.0°F0.6°C 34% 4.6 mph W7.4 kmh W 10.4 mph16.7 kmh 30.60 in1036.2 mb 0.00 in0.0 mm 0.00 in0.0 mm 0.00 in0.0 mm
02:00 PM 61.9°F16.6°C 33.9°F1.1°C 35% 6.1 mph W9.8 kmh W 13.6 mph21.9 kmh 30.60 in1036.2 mb 0.00 in0.0 mm 0.00 in0.0 mm 0.00 in0.0 mm
01:45 PM 61.5°F16.4°C 33.6°F0.9°C 35% 6.5 mph W10.5 kmh W 12.5 mph20.1 kmh 30.60 in1036.2 mb 0.00 in0.0 mm 0.00 in0.0 mm 0.00 in0.0 mm
01:30 PM 61.3°F16.3°C 33.4°F0.8°C 35% 6.0 mph W9.7 kmh W 12.2 mph19.6 kmh 30.60 in1036.2 mb 0.00 in0.0 mm 0.00 in0.0 mm 0.00 in0.0 mm
01:15 PM 61.7°F16.5°C 33.7°F0.9°C 35% 8.3 mph WSW13.4 kmh WSW 15.7 mph25.3 kmh 30.60 in1036.2 mb 0.00 in0.0 mm 0.00 in0.0 mm 0.00 in0.0 mm
01:00 PM 62.4°F16.9°C 32.9°F0.5°C 33% 5.9 mph SW9.5 kmh SW 12.5 mph20.1 kmh 30.60 in1036.2 mb 0.00 in0.0 mm 0.00 in0.0 mm 0.00 in0.0 mm
12:45 PM 62.8°F17.1°C 31.7°F-0.2°C 31% 7.3 mph ESE11.7 kmh ESE 15.7 mph25.3 kmh 30.57 in1035.2 mb 0.00 in0.0 mm 0.00 in0.0 mm 0.00 in0.0 mm
12:30 PM 62.4°F16.9°C 31.4°F-0.3°C 31% 9.0 mph E14.5 kmh E 17.5 mph28.2 kmh 30.57 in1035.2 mb 0.00 in0.0 mm 0.00 in0.0 mm 0.00 in0.0 mm
12:15 PM 61.9°F16.6°C 30.9°F-0.6°C 31% 7.4 mph E11.9 kmh E 17.9 mph28.8 kmh 30.57 in1035.2 mb 0.00 in0.0 mm 0.00 in0.0 mm 0.00 in0.0 mm
12:00 PM 61.5°F16.4°C 30.6°F-0.8°C 31% 7.2 mph ENE11.6 kmh ENE 16.5 mph26.6 kmh 30.60 in1036.2 mb 0.00 in0.0 mm 0.00 in0.0 mm 0.00 in0.0 mm
11:45 AM 61.0°F16.1°C 30.1°F-1.1°C 31% 6.9 mph NE11.1 kmh NE 11.8 mph19.0 kmh 30.60 in1036.2 mb 0.00 in0.0 mm 0.00 in0.0 mm 0.00 in0.0 mm
11:30 AM 60.4°F15.8°C 31.2°F-0.4°C 33% 7.9 mph NE12.7 kmh NE 14.0 mph22.5 kmh 30.60 in1036.2 mb 0.00 in0.0 mm 0.00 in0.0 mm 0.00 in0.0 mm
11:15 AM 60.1°F15.6°C 32.3°F0.2°C 35% 7.4 mph E11.9 kmh E 16.5 mph26.6 kmh 30.60 in1036.2 mb 0.00 in0.0 mm 0.00 in0.0 mm 0.00 in0.0 mm
11:00 AM 59.4°F15.2°C 32.4°F0.2°C 36% 6.2 mph E10.0 kmh E 12.5 mph20.1 kmh 30.60 in1036.2 mb 0.00 in0.0 mm 0.00 in0.0 mm 0.00 in0.0 mm
10:45 AM 58.8°F14.9°C 31.2°F-0.4°C 35% 6.7 mph ENE10.8 kmh ENE 16.1 mph25.9 kmh 30.60 in1036.2 mb 0.00 in0.0 mm 0.00 in0.0 mm 0.00 in0.0 mm
10:30 AM 58.3°F14.6°C 31.4°F-0.3°C 36% 5.8 mph E9.3 kmh E 12.9 mph20.8 kmh 30.60 in1036.2 mb 0.00 in0.0 mm 0.00 in0.0 mm 0.00 in0.0 mm
10:15 AM 57.6°F14.2°C 29.4°F-1.4°C 34% 5.8 mph NE9.3 kmh NE 10.0 mph16.1 kmh 30.60 in1036.2 mb 0.00 in0.0 mm 0.00 in0.0 mm 0.00 in0.0 mm
10:01 AM 57.0°F13.9°C 29.6°F-1.3°C 35% 6.2 mph NE10.0 kmh NE 11.8 mph19.0 kmh 30.60 in1036.2 mb 0.00 in0.0 mm 0.00 in0.0 mm 0.00 in0.0 mm
09:45 AM 56.1°F13.4°C 33.9°F1.1°C 43% 7.4 mph E11.9 kmh E 12.9 mph20.8 kmh 30.60 in1036.2 mb 0.00 in0.0 mm 0.00 in0.0 mm 0.00 in0.0 mm
09:30 AM 54.9°F12.7°C 36.0°F2.2°C 49% 5.8 mph E9.3 kmh E 14.3 mph23.0 kmh 30.60 in1036.2 mb 0.00 in0.0 mm 0.00 in0.0 mm 0.00 in0.0 mm
09:15 AM 53.2°F11.8°C 36.1°F2.3°C 52% 0.5 mph E0.8 kmh E 6.8 mph10.9 kmh 30.60 in1036.2 mb 0.00 in0.0 mm 0.00 in0.0 mm 0.00 in0.0 mm
09:00 AM 52.3°F11.3°C 35.7°F2.1°C 53% 0.9 mph NE1.4 kmh NE 5.7 mph9.2 kmh 30.60 in1036.2 mb 0.00 in0.0 mm 0.00 in0.0 mm 0.00 in0.0 mm
08:45 AM 51.4°F10.8°C 35.3°F1.8°C 54% 0.3 mph ENE0.5 kmh ENE 4.3 mph6.9 kmh 30.60 in1036.2 mb 0.00 in0.0 mm 0.00 in0.0 mm 0.00 in0.0 mm
08:30 AM 50.7°F10.4°C 35.1°F1.7°C 55% 1.8 mph NE2.9 kmh NE 6.8 mph10.9 kmh 30.60 in1036.2 mb 0.00 in0.0 mm 0.00 in0.0 mm 0.00 in0.0 mm
08:15 AM 49.8°F9.9°C 34.7°F1.5°C 56% 3.0 mph E4.8 kmh E 9.3 mph15.0 kmh 30.60 in1036.2 mb 0.00 in0.0 mm 0.00 in0.0 mm 0.00 in0.0 mm
08:00 AM 48.9°F9.4°C 34.8°F1.6°C 58% 1.4 mph E2.3 kmh E 10.0 mph16.1 kmh 30.60 in1036.2 mb 0.00 in0.0 mm 0.00 in0.0 mm 0.00 in0.0 mm
07:45 AM 47.8°F8.8°C 34.2°F1.2°C 59% 1.0 mph E1.6 kmh E 5.7 mph9.2 kmh 30.60 in1036.2 mb 0.00 in0.0 mm 0.00 in0.0 mm 0.00 in0.0 mm
07:30 AM 46.8°F8.2°C 34.0°F1.1°C 61% 2.8 mph E4.5 kmh E 8.6 mph13.8 kmh 30.60 in1036.2 mb 0.00 in0.0 mm 0.00 in0.0 mm 0.00 in0.0 mm
07:15 AM 45.5°F7.5°C 33.2°F0.7°C 62% 5.0 mph E8.0 kmh E 9.7 mph15.6 kmh 30.57 in1035.2 mb 0.00 in0.0 mm 0.00 in0.0 mm 0.00 in0.0 mm
07:00 AM 44.1°F6.7°C 32.3°F0.2°C 63% 3.1 mph E5.0 kmh E 10.0 mph16.1 kmh 30.57 in1035.2 mb 0.00 in0.0 mm 0.00 in0.0 mm 0.00 in0.0 mm
06:45 AM 42.8°F6.0°C 31.1°F-0.5°C 63% 5.4 mph E8.7 kmh E 12.2 mph19.6 kmh 30.60 in1036.2 mb 0.00 in0.0 mm 0.00 in0.0 mm 0.00 in0.0 mm
06:30 AM 41.7°F5.4°C 30.0°F-1.1°C 63% 6.8 mph E10.9 kmh E 11.5 mph18.5 kmh 30.63 in1037.3 mb 0.00 in0.0 mm 0.00 in0.0 mm 0.00 in0.0 mm
06:15 AM 41.0°F5.0°C 29.4°F-1.4°C 63% 7.9 mph E12.7 kmh E 12.5 mph20.1 kmh 30.60 in1036.2 mb 0.00 in0.0 mm 0.00 in0.0 mm 0.00 in0.0 mm
06:00 AM 40.1°F4.5°C 28.5°F-1.9°C 63% 7.6 mph E12.2 kmh E 11.1 mph17.9 kmh 30.60 in1036.2 mb 0.00 in0.0 mm 0.00 in0.0 mm 0.00 in0.0 mm
05:45 AM 39.2°F4.0°C 27.7°F-2.4°C 63% 2.6 mph E4.2 kmh E 6.8 mph10.9 kmh 30.60 in1036.2 mb 0.00 in0.0 mm 0.00 in0.0 mm 0.00 in0.0 mm
05:30 AM 38.5°F3.6°C 26.6°F-3.0°C 62% 2.0 mph E3.2 kmh E 8.6 mph13.8 kmh 30.60 in1036.2 mb 0.00 in0.0 mm 0.00 in0.0 mm 0.00 in0.0 mm
05:15 AM 38.1°F3.4°C 26.2°F-3.2°C 62% 0.4 mph E0.6 kmh E 6.1 mph9.8 kmh 30.57 in1035.2 mb 0.00 in0.0 mm 0.00 in0.0 mm 0.00 in0.0 mm
05:00 AM 38.1°F3.4°C 25.8°F-3.4°C 61% 1.8 mph E2.9 kmh E 8.6 mph13.8 kmh 30.57 in1035.2 mb 0.00 in0.0 mm 0.00 in0.0 mm 0.00 in0.0 mm
04:45 AM 38.3°F3.5°C 26.0°F-3.3°C 61% 5.1 mph ESE8.2 kmh ESE 10.0 mph16.1 kmh 30.57 in1035.2 mb 0.00 in0.0 mm 0.00 in0.0 mm 0.00 in0.0 mm
04:30 AM 37.9°F3.3°C 25.7°F-3.5°C 61% 7.1 mph E11.4 kmh E 10.7 mph17.2 kmh 30.57 in1035.2 mb 0.00 in0.0 mm 0.00 in0.0 mm 0.00 in0.0 mm
04:15 AM 37.8°F3.2°C 25.1°F-3.8°C 60% 6.0 mph E9.7 kmh E 8.9 mph14.3 kmh 30.57 in1035.2 mb 0.00 in0.0 mm 0.00 in0.0 mm 0.00 in0.0 mm
04:00 AM 37.9°F3.3°C 25.3°F-3.7°C 60% 2.8 mph E4.5 kmh E 7.5 mph12.1 kmh 30.54 in1034.2 mb 0.00 in0.0 mm 0.00 in0.0 mm 0.00 in0.0 mm
03:45 AM 38.5°F3.6°C 25.4°F-3.7°C 59% 6.4 mph E10.3 kmh E 9.7 mph15.6 kmh 30.57 in1035.2 mb 0.00 in0.0 mm 0.00 in0.0 mm 0.00 in0.0 mm
03:30 AM 38.7°F3.7°C 25.1°F-3.8°C 58% 7.8 mph ESE12.6 kmh ESE 11.8 mph19.0 kmh 30.57 in1035.2 mb 0.00 in0.0 mm 0.00 in0.0 mm 0.00 in0.0 mm
03:15 AM 38.8°F3.8°C 24.9°F-3.9°C 57% 8.5 mph ESE13.7 kmh ESE 12.5 mph20.1 kmh 30.54 in1034.2 mb 0.00 in0.0 mm 0.00 in0.0 mm 0.00 in0.0 mm
03:00 AM 39.0°F3.9°C 24.6°F-4.1°C 56% 9.2 mph E14.8 kmh E 13.6 mph21.9 kmh 30.57 in1035.2 mb 0.00 in0.0 mm 0.00 in0.0 mm 0.00 in0.0 mm
02:45 AM 39.2°F4.0°C 24.8°F-4.0°C 56% 8.9 mph ESE14.3 kmh ESE 12.9 mph20.8 kmh 30.54 in1034.2 mb 0.00 in0.0 mm 0.00 in0.0 mm 0.00 in0.0 mm
02:30 AM 39.0°F3.9°C 24.2°F-4.3°C 55% 4.3 mph ESE6.9 kmh ESE 10.0 mph16.1 kmh 30.54 in1034.2 mb 0.00 in0.0 mm 0.00 in0.0 mm 0.00 in0.0 mm
02:15 AM 39.4°F4.1°C 24.1°F-4.4°C 54% Calm Calm -- 30.54 in1034.2 mb 0.00 in0.0 mm 0.00 in0.0 mm 0.00 in0.0 mm
02:00 AM 39.7°F4.3°C 24.4°F-4.2°C 54% 1.2 mph SE1.9 kmh SE 6.4 mph10.3 kmh 30.54 in1034.2 mb 0.00 in0.0 mm 0.00 in0.0 mm 0.00 in0.0 mm
01:45 AM 40.5°F4.7°C 24.7°F-4.1°C 53% 0.1 mph SE0.2 kmh SE 3.6 mph5.8 kmh 30.54 in1034.2 mb 0.00 in0.0 mm 0.00 in0.0 mm 0.00 in0.0 mm
01:30 AM 40.8°F4.9°C 25.0°F-3.9°C 53% Calm Calm -- 30.54 in1034.2 mb 0.00 in0.0 mm 0.00 in0.0 mm 0.00 in0.0 mm
01:15 AM 41.4°F5.2°C 25.0°F-3.9°C 52% Calm Calm -- 30.54 in1034.2 mb 0.00 in0.0 mm 0.00 in0.0 mm 0.00 in0.0 mm
01:00 AM 41.2°F5.1°C 24.9°F-3.9°C 52% Calm Calm -- 30.54 in1034.2 mb 0.00 in0.0 mm 0.00 in0.0 mm 0.00 in0.0 mm
12:45 AM 41.5°F5.3°C 25.2°F-3.8°C 52% Calm Calm -- 30.54 in1034.2 mb 0.00 in0.0 mm 0.00 in0.0 mm 0.00 in0.0 mm
12:30 AM 42.1°F5.6°C 25.7°F-3.5°C 52% Calm Calm -- 30.54 in1034.2 mb 0.00 in0.0 mm 0.00 in0.0 mm 0.00 in0.0 mm
12:15 AM 43.0°F6.1°C 26.1°F-3.3°C 51% Calm Calm -- 30.54 in1034.2 mb 0.00 in0.0 mm 0.00 in0.0 mm 0.00 in0.0 mm
12:00 AM 43.0°F6.1°C 26.1°F-3.3°C 51% 1.9 mph SE3.1 kmh SE 9.7 mph15.6 kmh 30.51 in1033.2 mb 0.00 in0.0 mm 0.00 in0.0 mm 0.00 in0.0 mm